Terminal Aerodrome Forecast
Issued by NWS

Home | Current Version | Previous Version | Text Only | Print | Product List | Glossary On
Versions: 1 2 3 4 5 6 7 8 9 10 11 12 13 14 15 16 17
000
FTUS46 KSEW 252300 RRA
TAFOLM
TAF
KOLM 252342Z 2600/2624 00000KT P6SM SCT200
     FM260500 00000KT 3/4SM BR SCT003
     FM260800 00000KT 1/4SM FG VV001
     FM261800 22003KT 4SM BR BKN004
     FM262000 20007KT P6SM SCT020=

USA.gov is the U.S. government's official web portal to all federal, state and local government web resources and services.